Time;durP1;ratioP1;P1;durP2;ratioP2;P2;SDS_P1;SDS_P2;PMS_P1;PMS_P2;Temp;Humidity;BMP_temperature;BMP_pressure;BME280_temperature;BME280_humidity;BME280_pressure;Samples;Min_cycle;Max_cycle;Signal;HPM_P1;HPM_P2
2022/11/01 00:01:31;;;;;;;58.60;33.08;;;;;;;19.31;64.33;101297.44;4932460;28;100692;-68
2022/11/01 00:03:58;;;;;;;60.03;33.53;;;;;;;19.11;65.24;101300.50;4941048;28;99008;-69
2022/11/01 00:06:25;;;;;;;53.58;32.92;;;;;;;19.10;65.04;101296.97;4939051;28;96948;-69
2022/11/01 00:08:51;;;;;;;63.30;33.42;;;;;;;19.14;64.70;101294.97;4934847;28;96875;-71
2022/11/01 00:11:19;;;;;;;56.72;32.80;;;;;;;19.09;65.17;101279.19;4932779;28;99033;-70
2022/11/01 00:13:47;;;;;;;56.97;32.83;;;;;;;19.11;65.03;101273.72;4933526;28;99374;-70
2022/11/01 00:16:14;;;;;;;54.30;31.42;;;;;;;19.16;65.11;101262.72;4928746;28;97097;-69
2022/11/01 00:18:41;;;;;;;60.63;34.22;;;;;;;19.11;65.15;101247.78;4932832;28;97234;-69
2022/11/01 00:21:08;;;;;;;50.58;32.58;;;;;;;19.14;65.40;101241.41;4930902;28;98976;-69
2022/11/01 00:23:35;;;;;;;55.90;32.22;;;;;;;18.68;66.42;101236.22;4932723;28;100890;-68
2022/11/01 00:26:02;;;;;;;53.45;31.90;;;;;;;19.01;66.07;101235.94;4933551;28;96834;-68
2022/11/01 00:28:31;;;;;;;60.38;33.33;;;;;;;19.19;65.24;101238.41;4932696;28;96940;-69
2022/11/01 00:30:58;;;;;;;52.20;31.40;;;;;;;19.03;65.46;101246.56;4933926;28;99033;-69
2022/11/01 00:33:26;;;;;;;52.55;30.60;;;;;;;18.79;66.59;101248.94;4931227;28;98767;-69
2022/11/01 00:35:52;;;;;;;53.90;32.42;;;;;;;18.89;66.45;101250.09;4933980;28;97174;-69
2022/11/01 00:38:19;;;;;;;47.58;30.00;;;;;;;18.86;66.43;101238.72;4932695;28;96877;-69
2022/11/01 00:40:46;;;;;;;59.05;32.92;;;;;;;18.91;66.05;101252.66;4932423;28;99466;-69
2022/11/01 00:43:13;;;;;;;49.28;29.92;;;;;;;18.98;66.13;101243.31;4936961;28;98954;-69
2022/11/01 00:45:43;;;;;;;51.70;30.95;;;;;;;18.60;66.98;101275.13;4932409;28;97321;-69
2022/11/01 00:48:10;;;;;;;51.30;29.88;;;;;;;18.79;66.53;101258.78;4934596;28;99304;-70
2022/11/01 00:50:36;;;;;;;53.50;30.95;;;;;;;18.87;66.15;101246.66;4932858;28;101824;-69
2022/11/01 00:53:02;;;;;;;52.35;31.02;;;;;;;18.84;66.09;101265.56;4933817;28;98879;-68
2022/11/01 00:55:29;;;;;;;49.15;30.02;;;;;;;18.73;66.50;101251.13;4933275;28;97126;-69
2022/11/01 00:57:56;;;;;;;50.78;30.67;;;;;;;18.80;66.49;101239.09;4934005;28;96857;-69
2022/11/01 01:00:22;;;;;;;52.60;29.95;;;;;;;18.55;66.97;101245.06;4931418;28;99467;-69
2022/11/01 01:02:50;;;;;;;55.50;31.13;;;;;;;18.57;66.92;101238.72;4933615;28;101809;-69
2022/11/01 01:05:20;;;;;;;53.13;30.92;;;;;;;18.66;66.86;101237.25;4930906;28;96823;-69
2022/11/01 01:07:46;;;;;;;45.70;29.63;;;;;;;18.68;66.61;101222.84;4936550;28;97107;-69
2022/11/01 01:10:13;;;;;;;53.97;30.30;;;;;;;18.77;66.21;101215.22;4929958;28;100177;-69
2022/11/01 01:12:39;;;;;;;58.70;32.05;;;;;;;18.75;66.37;101217.09;4931745;28;98722;-69
2022/11/01 01:15:07;;;;;;;57.63;32.83;;;;;;;18.53;67.01;101201.47;4932400;28;97199;-69
2022/11/01 01:17:34;;;;;;;47.05;30.65;;;;;;;18.48;67.22;101190.19;4932578;28;96931;-69
2022/11/01 01:20:02;;;;;;;56.08;32.28;;;;;;;18.49;67.34;101184.75;4931658;28;99147;-69
2022/11/01 01:22:28;;;;;;;62.88;32.95;;;;;;;18.50;67.32;101178.44;4932167;28;98851;-69
2022/11/01 01:24:54;;;;;;;54.28;31.77;;;;;;;18.61;67.11;101185.84;4930205;28;97317;-69
2022/11/01 01:27:21;;;;;;;55.10;32.40;;;;;;;18.57;66.85;101173.63;4932831;28;96854;-69
2022/11/01 01:29:48;;;;;;;60.10;32.15;;;;;;;18.64;66.88;101164.25;4930693;28;99354;-69
2022/11/01 01:32:15;;;;;;;58.08;33.00;;;;;;;18.61;66.82;101159.94;4937531;28;98932;-69
2022/11/01 01:34:41;;;;;;;59.72;32.95;;;;;;;18.69;66.76;101180.88;4933236;28;96678;-69
2022/11/01 01:37:10;;;;;;;53.92;32.70;;;;;;;18.54;67.12;101209.41;4932631;28;97213;-69
2022/11/01 01:39:37;;;;;;;50.85;31.58;;;;;;;18.67;66.62;101199.69;4931591;28;99071;-69
2022/11/01 01:42:14;;;;;;;53.92;31.10;;;;;;;18.66;66.61;101222.06;4932144;28;99502;-69
2022/11/01 01:45:01;;;;;;;;;;;;;;;18.45;67.07;101223.34;4932695;28;96765;-69
2022/11/01 01:47:29;;;;;;;52.97;30.57;;;;;;;18.33;67.67;101234.78;4923253;28;97159;-69
2022/11/01 01:50:00;;;;;;;57.22;29.33;;;;;;;18.35;67.92;101232.88;4933560;28;98956;-70
2022/11/01 01:52:31;;;;;;;53.92;30.42;;;;;;;18.54;67.15;101216.56;4933477;28;99398;-70
2022/11/01 01:55:00;;;;;;;51.30;31.00;;;;;;;18.55;66.88;101202.25;4937970;28;97486;-70
2022/11/01 01:57:27;;;;;;;52.00;31.10;;;;;;;18.45;67.26;101204.59;4935261;28;97385;-70
2022/11/01 01:59:53;;;;;;;52.75;31.50;;;;;;;18.57;66.81;101195.88;4932498;28;100320;-69
2022/11/01 02:02:20;;;;;;;59.10;30.70;;;;;;;18.40;67.04;101190.66;4932189;28;99184;-69
2022/11/01 02:04:51;;;;;;;51.58;29.77;;;;;;;18.54;66.59;101182.66;4932263;28;96844;-68
2022/11/01 02:07:19;;;;;;;53.47;30.35;;;;;;;18.48;66.73;101183.03;4935703;28;96910;-70
2022/11/01 02:09:47;;;;;;;51.13;29.60;;;;;;;18.33;67.16;101171.44;4933336;28;99334;-68
2022/11/01 02:12:14;;;;;;;52.53;31.17;;;;;;;18.69;66.27;101160.31;4935465;28;99024;-68
2022/11/01 02:14:44;;;;;;;52.83;30.90;;;;;;;18.61;66.21;101159.94;4937693;28;97788;-67
2022/11/01 02:17:20;;;;;;;50.08;30.85;;;;;;;18.54;66.52;101153.22;4934028;28;96854;-68
2022/11/01 02:20:13;;;;;;;59.75;31.30;;;;;;;18.48;66.61;101153.59;4933974;28;99381;-68
2022/11/01 02:23:20;;;;;;;53.67;30.23;;;;;;;18.48;66.63;101142.88;4936298;28;99388;-68
2022/11/01 02:26:02;;;;;;;55.10;30.90;;;;;;;18.56;66.59;101131.75;4931562;28;98403;-68
2022/11/01 02:28:45;;;;;;;51.45;29.77;;;;;;;18.50;66.62;101137.44;4934710;28;97208;-69
2022/11/01 02:31:32;;;;;;;49.15;30.25;;;;;;;18.44;66.93;101135.16;4932045;28;98964;-70
2022/11/01 02:34:04;;;;;;;61.95;30.67;;;;;;;18.37;67.09;101123.97;4933706;28;99254;-71
2022/11/01 02:36:37;;;;;;;52.13;30.88;;;;;;;18.50;66.86;101124.06;4934421;28;97172;-69
2022/11/01 02:39:14;;;;;;;50.88;30.70;;;;;;;18.52;66.47;101122.13;4937341;28;97556;-70
2022/11/01 02:41:48;;;;;;;52.67;30.23;;;;;;;18.37;67.08;101118.63;4941547;28;99040;-69
2022/11/01 02:44:18;;;;;;;53.67;30.90;;;;;;;18.21;67.59;101112.47;4932555;28;99178;-69
2022/11/01 02:47:02;;;;;;;50.35;30.08;;;;;;;18.42;66.92;101116.50;4937229;28;97410;-70
2022/11/01 02:49:34;;;;;;;56.65;31.05;;;;;;;18.20;67.36;101108.09;4934847;28;99010;-69
2022/11/01 02:52:02;;;;;;;53.78;31.17;;;;;;;18.39;66.89;101108.66;4939172;28;98895;-70
2022/11/01 02:54:32;;;;;;;58.75;30.92;;;;;;;18.42;66.74;101111.16;4935340;28;98846;-68
2022/11/01 02:57:25;;;;;;;56.13;30.65;;;;;;;18.33;66.91;101096.53;4933305;28;96944;-69
2022/11/01 02:59:52;;;;;;;50.15;29.98;;;;;;;18.33;66.81;101098.34;4934498;28;98417;-68
2022/11/01 03:02:38;;;;;;;54.10;31.65;;;;;;;18.33;66.66;101101.88;4932790;28;99326;-69
2022/11/01 03:05:12;;;;;;;57.10;32.40;;;;;;;18.27;66.69;101098.72;4929859;28;99359;-68
2022/11/01 03:07:42;;;;;;;53.25;30.70;;;;;;;18.38;66.57;101104.25;4932184;28;96933;-69
2022/11/01 03:10:09;;;;;;;53.13;32.63;;;;;;;18.17;67.20;101111.81;4933676;28;96879;-69
2022/11/01 03:12:49;;;;;;;52.85;31.27;;;;;;;18.13;67.14;101114.75;4932577;28;99073;-68
2022/11/01 03:15:22;;;;;;;52.10;31.63;;;;;;;18.09;67.68;101114.09;4932690;28;98989;-69
2022/11/01 03:17:54;;;;;;;52.33;30.17;;;;;;;18.10;67.10;101105.13;4931176;28;96846;-69
2022/11/01 03:20:27;;;;;;;48.78;30.23;;;;;;;17.97;68.27;101108.63;4936316;28;97916;-70
2022/11/01 03:22:58;;;;;;;47.15;30.02;;;;;;;17.81;68.40;101103.34;4928615;28;98882;-70
2022/11/01 03:25:39;;;;;;;50.55;31.27;;;;;;;17.81;68.46;101106.00;4933326;28;97401;-69
2022/11/01 03:28:10;;;;;;;53.25;29.80;;;;;;;17.74;68.77;101113.53;4933659;28;97107;-69
2022/11/01 03:30:43;;;;;;;54.03;30.08;;;;;;;17.83;68.42;101122.81;4931939;28;98762;-68
2022/11/01 03:33:12;;;;;;;50.55;30.73;;;;;;;17.80;68.43;101123.84;4935128;28;98936;-69
2022/11/01 03:35:44;;;;;;;53.38;31.95;;;;;;;17.69;68.95;101126.31;4931625;28;100041;-68
2022/11/01 03:38:17;;;;;;;53.28;30.55;;;;;;;17.71;68.86;101123.56;4932456;28;96864;-68
2022/11/01 03:40:49;;;;;;;58.10;30.80;;;;;;;17.62;69.11;101122.28;4929606;28;96979;-68
2022/11/01 03:43:18;;;;;;;50.45;31.05;;;;;;;17.78;68.53;101114.22;4933963;28;100525;-68
2022/11/01 03:45:45;;;;;;;48.08;30.63;;;;;;;17.72;68.72;101117.28;4932765;28;98893;-69
2022/11/01 03:48:11;;;;;;;63.85;31.63;;;;;;;17.72;68.59;101120.78;4931873;28;96780;-69
2022/11/01 03:50:39;;;;;;;56.70;30.00;;;;;;;17.73;68.57;101113.63;4930658;28;97699;-68
2022/11/01 03:53:06;;;;;;;62.83;31.92;;;;;;;17.72;68.61;101114.59;4930809;28;100475;-68
2022/11/01 03:55:32;;;;;;;54.38;31.23;;;;;;;17.81;68.56;101103.34;4931110;28;99369;-69
2022/11/01 03:57:59;;;;;;;56.63;30.80;;;;;;;17.91;68.06;101107.19;4932732;28;99307;-68
2022/11/01 04:00:27;;;;;;;50.90;31.10;;;;;;;17.65;68.29;101103.41;4932912;28;97742;-68
2022/11/01 04:02:55;;;;;;;49.05;31.17;;;;;;;17.97;67.55;101103.28;4931114;28;101746;-69
2022/11/01 04:05:23;;;;;;;53.10;30.88;;;;;;;17.85;67.86;101104.91;4932031;28;101079;-69
2022/11/01 04:07:51;;;;;;;52.00;30.20;;;;;;;17.99;67.27;101101.34;4929678;28;96792;-68
2022/11/01 04:10:18;;;;;;;49.10;31.63;;;;;;;17.91;67.50;101100.03;4932246;28;96806;-69
2022/11/01 04:12:46;;;;;;;47.20;29.67;;;;;;;18.00;67.16;101097.75;4931547;28;98074;-69
2022/11/01 04:20:48;;;;;;;56.00;30.42;;;;;;;17.84;67.70;101088.00;4926984;28;97699;-69
2022/11/01 04:23:16;;;;;;;50.22;30.60;;;;;;;17.77;67.86;101097.34;4933709;28;99125;-69
2022/11/01 04:25:45;;;;;;;57.03;30.90;;;;;;;17.82;67.58;101099.72;4933606;28;98826;-69
2022/11/01 04:28:11;;;;;;;52.92;31.08;;;;;;;17.82;67.52;101111.28;4932254;28;96841;-69
2022/11/01 04:30:37;;;;;;;53.25;31.45;;;;;;;17.66;68.50;101120.28;4931730;28;97131;-70
2022/11/01 04:33:04;;;;;;;50.88;31.80;;;;;;;17.47;69.17;101117.78;4933689;28;99493;-70
2022/11/01 04:35:30;;;;;;;47.45;30.73;;;;;;;17.66;68.32;101115.78;4932700;28;98872;-69
2022/11/01 04:37:58;;;;;;;55.75;31.60;;;;;;;17.60;68.64;101112.59;4938250;28;96678;-69
2022/11/01 04:40:26;;;;;;;57.63;31.83;;;;;;;17.49;68.72;101105.22;4933825;28;96861;-69
2022/11/01 04:42:52;;;;;;;51.22;30.30;;;;;;;17.57;68.79;101094.09;4933292;28;97764;-69
2022/11/01 04:45:19;;;;;;;57.45;29.80;;;;;;;17.49;68.68;101091.84;4933063;28;99362;-70
2022/11/01 04:47:51;;;;;;;51.22;30.60;;;;;;;17.47;68.96;101099.09;4932588;28;98804;-68
2022/11/01 04:50:20;;;;;;;55.90;31.50;;;;;;;17.42;69.14;101117.19;4940813;28;97131;-68
2022/11/01 04:52:48;;;;;;;50.83;30.17;;;;;;;17.33;69.16;101099.03;4932292;28;98904;-69
2022/11/01 04:55:14;;;;;;;54.75;30.70;;;;;;;17.53;68.78;101099.59;4934270;28;99312;-68
2022/11/01 04:57:43;;;;;;;59.88;32.97;;;;;;;17.67;68.24;101104.16;4932604;28;96829;-69
2022/11/01 05:00:11;;;;;;;59.45;32.45;;;;;;;17.47;68.70;101089.25;4931035;28;96973;-69
2022/11/01 05:02:39;;;;;;;54.30;31.27;;;;;;;17.52;68.76;101095.19;4932154;28;101451;-69
2022/11/01 05:05:08;;;;;;;56.05;32.10;;;;;;;17.62;67.79;101087.53;4931786;28;98869;-68
2022/11/01 05:07:34;;;;;;;52.65;31.38;;;;;;;17.56;67.91;101087.88;4935687;28;96957;-69
2022/11/01 05:10:01;;;;;;;56.67;30.40;;;;;;;17.50;68.23;101080.22;4932539;28;97037;-70
2022/11/01 05:12:27;;;;;;;53.22;31.17;;;;;;;17.39;68.42;101086.16;4932429;28;99026;-68
2022/11/01 05:14:55;;;;;;;58.78;30.90;;;;;;;17.36;68.71;101081.03;4932342;28;98751;-69
2022/11/01 05:17:22;;;;;;;51.95;30.83;;;;;;;17.68;67.60;101076.47;4931130;28;96883;-68
2022/11/01 05:19:48;;;;;;;52.45;30.73;;;;;;;17.60;68.01;101068.03;4930838;28;96851;-69
2022/11/01 05:22:14;;;;;;;55.03;31.33;;;;;;;17.42;68.17;101075.31;4929187;28;99329;-70
2022/11/01 05:24:41;;;;;;;56.78;31.65;;;;;;;17.38;68.48;101072.94;4931699;28;99316;-68
2022/11/01 05:27:07;;;;;;;53.88;31.25;;;;;;;17.33;69.06;101061.63;4934233;28;96799;-69
2022/11/01 05:29:34;;;;;;;57.65;31.35;;;;;;;17.41;68.39;101049.56;4933906;28;96918;-68
2022/11/01 05:32:02;;;;;;;54.53;30.00;;;;;;;17.47;68.21;101046.53;4931847;28;99248;-68
2022/11/01 05:34:28;;;;;;;58.38;30.05;;;;;;;17.26;69.19;101062.97;4931990;28;98990;-68
2022/11/01 05:36:55;;;;;;;59.03;30.92;;;;;;;17.43;68.50;101060.16;4932242;28;96607;-68
2022/11/01 05:39:21;;;;;;;48.60;30.83;;;;;;;17.46;68.32;101051.94;4933208;28;96868;-69
2022/11/01 05:41:48;;;;;;;56.60;31.50;;;;;;;17.39;68.39;101067.47;4924562;28;98922;-69
2022/11/01 05:44:14;;;;;;;48.83;30.42;;;;;;;17.37;68.71;101065.88;4932407;28;99179;-70
2022/11/01 05:46:40;;;;;;;71.55;32.72;;;;;;;17.32;68.67;101068.81;4933206;28;97081;-69
2022/11/01 05:49:08;;;;;;;55.05;32.08;;;;;;;17.34;68.68;101068.69;4932120;28;97201;-69
2022/11/01 05:51:38;;;;;;;56.78;31.73;;;;;;;17.32;68.56;101063.47;4934158;28;99104;-70
2022/11/01 05:54:04;;;;;;;51.97;30.40;;;;;;;17.25;68.78;101059.44;4933216;28;98038;-70
2022/11/01 05:56:30;;;;;;;56.63;31.05;;;;;;;17.13;69.00;101057.47;4933002;28;96923;-69
2022/11/01 05:58:57;;;;;;;55.20;31.30;;;;;;;17.04;69.31;101064.19;4932054;28;97712;-69
2022/11/01 06:01:23;;;;;;;55.55;30.55;;;;;;;17.14;68.88;101062.69;4929624;28;98871;-71
2022/11/01 06:03:50;;;;;;;49.42;29.02;;;;;;;17.00;69.19;101073.31;4930576;28;100631;-69
2022/11/01 06:06:18;;;;;;;61.05;30.85;;;;;;;16.98;69.54;101085.91;4929483;28;97507;-70
2022/11/01 06:08:44;;;;;;;50.75;30.50;;;;;;;17.16;68.81;101075.97;4933750;28;96901;-69
2022/11/01 06:11:11;;;;;;;56.65;30.95;;;;;;;17.05;68.86;101102.44;4928805;28;98234;-69
2022/11/01 06:13:37;;;;;;;54.10;30.02;;;;;;;17.10;68.71;101089.69;4924417;28;99290;-69
2022/11/01 06:16:05;;;;;;;51.75;30.73;;;;;;;17.09;68.68;101086.16;4927101;28;96871;-69
2022/11/01 06:18:32;;;;;;;56.47;29.80;;;;;;;16.94;69.12;101078.13;4931567;28;96811;-70
2022/11/01 06:20:59;;;;;;;59.30;29.65;;;;;;;17.16;68.22;101059.09;4930145;28;99080;-70
2022/11/01 06:23:26;;;;;;;53.13;29.30;;;;;;;16.95;68.81;101074.53;4928233;28;98796;-69
2022/11/01 06:25:59;;;;;;;51.15;29.40;;;;;;;17.10;68.47;101068.31;4927448;28;98462;-69
2022/11/01 06:28:25;;;;;;;56.90;29.35;;;;;;;17.17;68.14;101068.81;4928222;28;98616;-70
2022/11/01 06:30:52;;;;;;;51.92;29.90;;;;;;;16.99;68.18;101052.94;4930829;28;98910;-70
2022/11/01 06:33:18;;;;;;;51.50;28.35;;;;;;;17.07;68.10;101057.81;4929526;28;98815;-69
2022/11/01 06:35:45;;;;;;;52.45;28.52;;;;;;;17.07;68.43;101065.81;4933524;28;97141;-70
2022/11/01 06:38:11;;;;;;;55.03;27.08;;;;;;;17.18;67.74;101055.41;4932867;28;97324;-70
2022/11/01 06:40:39;;;;;;;50.47;29.30;;;;;;;17.03;68.31;101078.50;4931333;28;98971;-70
2022/11/01 06:43:06;;;;;;;44.83;27.67;;;;;;;17.03;68.40;101089.16;4931255;28;98987;-69
2022/11/01 06:45:32;;;;;;;55.10;28.02;;;;;;;17.12;67.89;101088.66;4928594;28;96961;-69
2022/11/01 06:47:59;;;;;;;51.47;28.35;;;;;;;17.29;67.48;101079.66;4932889;28;97308;-71
2022/11/01 06:50:25;;;;;;;42.63;25.48;;;;;;;17.26;67.23;101079.00;4929922;28;99093;-69
2022/11/01 06:52:57;;;;;;;56.45;28.77;;;;;;;17.24;67.11;101087.09;4934183;28;99257;-70
2022/11/01 06:55:23;;;;;;;46.92;27.00;;;;;;;17.26;67.16;101079.00;4930818;28;98942;-70
2022/11/01 06:57:55;;;;;;;52.22;26.48;;;;;;;17.08;67.63;101089.75;4933042;28;96739;-71
2022/11/01 07:00:22;;;;;;;48.42;25.98;;;;;;;17.28;67.14;101082.41;4928960;28;100615;-70
2022/11/01 07:02:48;;;;;;;53.67;26.73;;;;;;;17.40;66.78;101081.69;4932317;28;98856;-70
2022/11/01 07:05:15;;;;;;;43.65;25.17;;;;;;;17.45;66.46;101080.50;4931737;28;96730;-69
2022/11/01 07:07:41;;;;;;;46.10;26.45;;;;;;;17.39;66.44;101088.84;4934705;28;97314;-69
2022/11/01 07:10:09;;;;;;;46.80;24.92;;;;;;;17.59;65.89;101097.53;4931904;28;99228;-70
2022/11/01 07:12:35;;;;;;;42.10;25.08;;;;;;;17.69;65.66;101101.41;4932725;28;98942;-70
2022/11/01 07:15:04;;;;;;;42.13;24.73;;;;;;;17.72;65.37;101110.09;4932013;28;97323;-71
2022/11/01 07:17:30;;;;;;;43.55;25.60;;;;;;;17.69;65.49;101096.91;4932440;28;97462;-69
2022/11/01 07:19:57;;;;;;;41.75;25.73;;;;;;;17.72;65.21;101093.22;4930175;28;100810;-72
2022/11/01 07:22:23;;;;;;;43.22;25.27;;;;;;;17.64;65.36;101101.69;4931996;28;99289;-68
2022/11/01 07:24:50;;;;;;;43.70;25.15;;;;;;;17.80;65.13;101107.81;4937141;28;97130;-70
2022/11/01 07:27:16;;;;;;;47.03;24.45;;;;;;;17.86;64.59;101106.59;4935191;28;97038;-70
2022/11/01 07:29:42;;;;;;;43.67;23.48;;;;;;;17.87;64.20;101102.97;4934415;28;99236;-71
2022/11/01 07:32:11;;;;;;;44.83;24.40;;;;;;;17.82;64.43;101105.94;4935362;28;99114;-69
2022/11/01 07:34:37;;;;;;;45.08;23.48;;;;;;;17.81;64.62;101125.59;4935552;28;96810;-70
2022/11/01 07:37:04;;;;;;;46.47;25.60;;;;;;;17.75;64.71;101128.63;4935396;28;97256;-73
2022/11/01 07:39:31;;;;;;;40.03;23.83;;;;;;;17.68;65.09;101123.72;4935179;28;99337;-72
2022/11/01 07:41:58;;;;;;;43.03;24.33;;;;;;;17.79;64.52;101148.88;4939968;28;100321;-71
2022/11/01 07:44:27;;;;;;;37.15;22.45;;;;;;;17.91;64.09;101153.50;4934885;28;97197;-70
2022/11/01 07:46:53;;;;;;;41.67;24.85;;;;;;;18.05;63.86;101141.13;4935250;28;96824;-71
2022/11/01 07:49:21;;;;;;;47.08;25.35;;;;;;;17.95;63.87;101139.94;4934630;28;100651;-71
2022/11/01 07:51:47;;;;;;;45.45;24.33;;;;;;;17.96;63.84;101149.69;4934772;28;99384;-71
2022/11/01 07:54:14;;;;;;;47.20;23.08;;;;;;;18.15;63.38;101164.53;4934252;28;97376;-71
2022/11/01 07:56:40;;;;;;;42.05;25.33;;;;;;;18.15;63.28;101166.34;4936459;28;98639;-70
2022/11/01 07:59:08;;;;;;;41.10;22.95;;;;;;;18.21;63.24;101165.97;4936196;28;99336;-71
2022/11/01 08:01:34;;;;;;;41.08;23.00;;;;;;;18.06;63.27;101166.88;4931292;28;99332;-73
2022/11/01 08:04:01;;;;;;;39.85;23.60;;;;;;;17.89;63.84;101154.53;4934751;28;97077;-71
2022/11/01 08:06:29;;;;;;;37.58;22.13;;;;;;;17.87;63.86;101176.00;4945236;28;97069;-71
2022/11/01 08:08:56;;;;;;;44.65;24.05;;;;;;;17.82;64.17;101175.44;4934959;28;99305;-71
2022/11/01 08:11:22;;;;;;;40.13;22.67;;;;;;;17.80;64.44;101166.63;4932397;28;99344;-70
2022/11/01 08:13:49;;;;;;;39.97;23.45;;;;;;;18.01;63.92;101174.34;4935022;28;96840;-71
2022/11/01 08:16:16;;;;;;;37.38;21.60;;;;;;;18.05;63.52;101167.88;4940268;28;96941;-70
2022/11/01 08:18:43;;;;;;;35.70;20.65;;;;;;;18.00;63.41;101169.94;4933812;28;98918;-70
2022/11/01 08:21:10;;;;;;;32.90;20.45;;;;;;;18.17;62.90;101157.28;4934434;28;99383;-71
2022/11/01 08:23:38;;;;;;;36.00;20.25;;;;;;;18.16;62.73;101158.25;4934673;28;97002;-70
2022/11/01 08:26:05;;;;;;;35.20;20.73;;;;;;;18.37;61.84;101171.28;4931341;28;96943;-70
2022/11/01 08:28:32;;;;;;;38.95;19.90;;;;;;;18.17;62.28;101172.47;4934309;28;98949;-70
2022/11/01 08:30:58;;;;;;;33.25;19.23;;;;;;;18.40;61.69;101161.22;4938599;28;98916;-69
2022/11/01 08:33:24;;;;;;;33.78;19.17;;;;;;;18.39;61.57;101158.63;4934232;28;97225;-69
2022/11/01 08:35:51;;;;;;;36.42;18.88;;;;;;;18.31;61.42;101165.31;4934466;28;96854;-70
2022/11/01 08:38:17;;;;;;;37.50;19.85;;;;;;;18.58;61.18;101160.13;4934764;28;100683;-71
2022/11/01 08:40:45;;;;;;;29.27;18.35;;;;;;;18.61;60.97;101178.69;4934227;28;99309;-70
2022/11/01 08:43:12;;;;;;;30.13;18.98;;;;;;;18.54;60.86;101174.63;4932189;28;96830;-70
2022/11/01 08:45:39;;;;;;;27.60;17.77;;;;;;;18.53;60.93;101166.69;4930728;28;96889;-71
2022/11/01 08:48:06;;;;;;;30.00;17.92;;;;;;;18.81;60.21;101168.53;4933711;28;101257;-71
2022/11/01 08:50:34;;;;;;;31.02;17.80;;;;;;;18.88;59.79;101156.47;4933493;28;98876;-70
2022/11/01 08:53:04;;;;;;;24.65;17.05;;;;;;;19.02;59.33;101165.38;4934375;28;96659;-72
2022/11/01 08:55:30;;;;;;;31.48;18.10;;;;;;;19.15;58.75;101156.53;4933917;28;96829;-70
2022/11/01 08:58:00;;;;;;;29.45;17.40;;;;;;;19.43;58.03;101157.31;4933782;28;97802;-71
2022/11/01 09:00:27;;;;;;;28.77;16.48;;;;;;;19.62;57.49;101164.19;4934012;28;97550;-70
2022/11/01 09:02:53;;;;;;;23.50;16.20;;;;;;;19.39;57.79;101169.19;4920976;28;97866;-70
2022/11/01 09:05:20;;;;;;;26.67;15.98;;;;;;;19.59;57.42;101167.06;4930796;28;97106;-70
2022/11/01 09:07:46;;;;;;;35.35;16.48;;;;;;;19.37;57.66;101175.59;4931101;28;99260;-69
2022/11/01 09:10:15;;;;;;;31.92;15.95;;;;;;;19.67;57.48;101157.53;4929125;28;98794;-69
2022/11/01 09:12:41;;;;;;;28.90;16.73;;;;;;;19.79;56.68;101171.94;4931945;28;97452;-71
2022/11/01 09:15:10;;;;;;;27.10;15.63;;;;;;;19.57;57.06;101177.00;4931076;28;97242;-70
2022/11/01 09:17:36;;;;;;;32.67;17.45;;;;;;;19.78;57.12;101167.53;4925030;28;99960;-70
2022/11/01 09:20:04;;;;;;;27.77;17.20;;;;;;;19.61;57.53;101154.41;4925833;28;98645;-69
2022/11/01 09:22:31;;;;;;;26.35;15.40;;;;;;;20.12;56.38;101150.88;4929523;28;96827;-70
2022/11/01 09:24:57;;;;;;;29.17;15.63;;;;;;;19.90;55.99;101154.16;4930252;28;96835;-72
2022/11/01 09:27:24;;;;;;;30.63;16.23;;;;;;;20.05;55.83;101151.41;4931785;28;98910;-71
2022/11/01 09:29:50;;;;;;;21.90;13.85;;;;;;;20.31;55.64;101147.78;4928743;28;99321;-71
2022/11/01 09:32:18;;;;;;;26.10;14.90;;;;;;;20.42;55.27;101144.38;4931282;28;96774;-72
2022/11/01 09:34:45;;;;;;;31.77;17.05;;;;;;;20.40;54.91;101146.31;4929675;28;97034;-72
2022/11/01 09:37:12;;;;;;;25.73;14.45;;;;;;;20.43;55.15;101157.69;4929389;28;98989;-71
2022/11/01 09:39:38;;;;;;;29.92;13.82;;;;;;;20.04;55.95;101161.28;4927673;28;98807;-72
2022/11/01 09:42:10;;;;;;;31.02;13.80;;;;;;;20.24;55.37;101178.69;4930228;28;96737;-73
2022/11/01 09:44:42;;;;;;;21.75;12.70;;;;;;;20.18;55.75;101197.88;4931681;28;97834;-71
2022/11/01 09:47:15;;;;;;;25.75;13.27;;;;;;;20.32;55.41;101197.81;4926155;28;99628;-71
2022/11/01 09:49:47;;;;;;;19.15;12.45;;;;;;;20.55;55.22;101193.53;4927736;28;98974;-70
2022/11/01 09:52:21;;;;;;;36.63;14.18;;;;;;;20.52;54.71;101185.72;4926111;28;97700;-70
2022/11/01 09:54:48;;;;;;;21.48;12.43;;;;;;;20.80;54.20;101193.56;4924905;28;97320;-71
2022/11/01 09:57:21;;;;;;;22.65;12.63;;;;;;;20.82;54.26;101201.47;4930862;28;98951;-71
2022/11/01 10:00:00;;;;;;;25.88;12.43;;;;;;;20.78;54.24;101186.56;4929915;28;101281;-69
2022/11/01 10:02:54;;;;;;;22.98;12.73;;;;;;;20.85;54.15;101195.91;4928940;28;96907;-69
2022/11/01 10:05:38;;;;;;;23.38;12.18;;;;;;;20.71;54.40;101196.88;4929845;28;96895;-71
2022/11/01 10:08:11;;;;;;;22.65;12.07;;;;;;;20.98;54.71;101197.63;4927976;28;98884;-70
2022/11/01 10:10:43;;;;;;;26.55;12.48;;;;;;;20.98;54.22;101191.38;4923887;28;98844;-70
2022/11/01 10:13:26;;;;;;;21.80;11.98;;;;;;;20.79;54.95;101196.34;4930540;28;96780;-71
2022/11/01 10:16:01;;;;;;;28.25;11.75;;;;;;;20.71;55.30;101207.63;4927013;28;97305;-70
2022/11/01 10:18:29;;;;;;;23.48;12.40;;;;;;;20.79;54.25;101207.09;4928433;28;98922;-70
2022/11/01 10:21:00;;;;;;;24.20;13.18;;;;;;;20.83;54.43;101189.78;4927608;28;98914;-70
2022/11/01 10:23:38;;;;;;;23.45;12.32;;;;;;;20.80;54.44;101193.56;4929309;28;97001;-70
2022/11/01 10:26:06;;;;;;;21.75;12.13;;;;;;;20.53;55.53;101184.75;4928303;28;97148;-70
2022/11/01 10:28:43;;;;;;;27.00;11.77;;;;;;;20.56;55.29;101196.13;4934353;28;99667;-71
2022/11/01 10:31:16;;;;;;;21.52;11.77;;;;;;;20.90;54.63;101183.88;4932140;28;98819;-70
2022/11/01 10:33:50;;;;;;;21.42;12.18;;;;;;;20.88;55.03;101191.16;4930746;28;97184;-71
2022/11/01 10:36:26;;;;;;;20.90;12.73;;;;;;;21.02;55.09;101192.88;4933055;28;97227;-71
2022/11/01 10:39:03;;;;;;;28.15;12.02;;;;;;;21.07;54.67;101201.44;4931419;28;99434;-71
2022/11/01 10:41:41;;;;;;;23.13;11.77;;;;;;;20.83;55.23;101213.94;4929314;28;98917;-71
2022/11/01 10:44:13;;;;;;;27.48;12.27;;;;;;;20.72;56.10;101220.09;4932331;28;97461;-70
2022/11/01 10:46:45;;;;;;;24.20;11.52;;;;;;;20.77;55.86;101217.06;4933472;28;96749;-70
2022/11/01 10:49:22;;;;;;;24.38;11.52;;;;;;;20.91;55.41;101225.03;4932298;28;101778;-71
2022/11/01 10:51:53;;;;;;;22.38;11.32;;;;;;;20.92;55.60;101226.75;4933164;28;100867;-70
2022/11/01 10:54:25;;;;;;;20.10;11.52;;;;;;;21.02;55.47;101225.97;4932869;28;96801;-70
2022/11/01 10:56:55;;;;;;;21.35;11.43;;;;;;;20.96;55.88;101220.16;4930607;28;97433;-70
2022/11/01 10:59:28;;;;;;;20.58;11.90;;;;;;;21.02;55.61;101219.72;4929164;28;99381;-69
2022/11/01 11:01:55;;;;;;;20.92;11.60;;;;;;;21.22;55.56;101208.44;4927596;28;98948;-70
2022/11/01 11:04:24;;;;;;;21.42;11.25;;;;;;;21.38;55.00;101210.88;4930350;28;96879;-71
2022/11/01 11:06:52;;;;;;;22.58;10.57;;;;;;;21.37;54.96;101212.72;4933133;28;96976;-70
2022/11/01 11:09:24;;;;;;;22.83;10.63;;;;;;;21.22;55.60;101221.88;4932881;28;101578;-70
2022/11/01 11:11:53;;;;;;;17.00;9.85;;;;;;;21.41;54.95;101213.31;4928073;28;98792;-70
2022/11/01 11:14:20;;;;;;;19.92;10.13;;;;;;;21.46;55.02;101211.19;4926993;28;97182;-70
2022/11/01 11:16:51;;;;;;;24.42;10.45;;;;;;;21.66;54.73;101215.91;4933597;28;96926;-69
2022/11/01 11:19:24;;;;;;;22.90;10.00;;;;;;;22.02;54.01;101215.03;4933475;28;99621;-70
2022/11/01 11:21:54;;;;;;;19.90;9.30;;;;;;;22.00;53.93;101218.81;4933030;28;99448;-71
2022/11/01 11:24:22;;;;;;;17.67;8.48;;;;;;;22.00;54.06;101210.72;4930122;28;97006;-71